sensor_id;sensor_type;location;lat;lon;timestamp;temperature;humidity
11239;DHT22;5677;48.488;13.436;2023-03-12T00:00:11;13.70;55.40
11239;DHT22;5677;48.488;13.436;2023-03-12T00:02:37;13.70;55.40
11239;DHT22;5677;48.488;13.436;2023-03-12T00:05:05;13.70;55.30
11239;DHT22;5677;48.488;13.436;2023-03-12T00:07:32;13.70;55.40
11239;DHT22;5677;48.488;13.436;2023-03-12T00:10:00;13.70;55.10
11239;DHT22;5677;48.488;13.436;2023-03-12T00:12:29;13.60;54.90
11239;DHT22;5677;48.488;13.436;2023-03-12T00:14:55;13.70;54.90
11239;DHT22;5677;48.488;13.436;2023-03-12T00:17:22;13.70;54.70
11239;DHT22;5677;48.488;13.436;2023-03-12T00:19:50;13.60;54.50
11239;DHT22;5677;48.488;13.436;2023-03-12T00:22:17;13.60;54.50
11239;DHT22;5677;48.488;13.436;2023-03-12T00:24:49;13.60;54.50
11239;DHT22;5677;48.488;13.436;2023-03-12T00:27:16;13.60;54.40
11239;DHT22;5677;48.488;13.436;2023-03-12T00:29:44;13.60;55.00
11239;DHT22;5677;48.488;13.436;2023-03-12T00:32:11;13.60;54.30
11239;DHT22;5677;48.488;13.436;2023-03-12T00:34:38;13.60;54.30
11239;DHT22;5677;48.488;13.436;2023-03-12T00:37:05;13.60;54.40
11239;DHT22;5677;48.488;13.436;2023-03-12T00:39:32;13.60;54.30
11239;DHT22;5677;48.488;13.436;2023-03-12T00:41:59;13.60;54.40
11239;DHT22;5677;48.488;13.436;2023-03-12T00:44:26;13.60;54.50
11239;DHT22;5677;48.488;13.436;2023-03-12T00:46:54;13.60;54.40
11239;DHT22;5677;48.488;13.436;2023-03-12T00:49:21;13.60;54.40
11239;DHT22;5677;48.488;13.436;2023-03-12T00:51:48;13.60;54.40
11239;DHT22;5677;48.488;13.436;2023-03-12T00:54:15;13.60;54.40
11239;DHT22;5677;48.488;13.436;2023-03-12T00:56:41;13.60;54.30
11239;DHT22;5677;48.488;13.436;2023-03-12T00:59:09;13.60;54.30
11239;DHT22;5677;48.488;13.436;2023-03-12T01:01:36;13.60;54.40
11239;DHT22;5677;48.488;13.436;2023-03-12T01:04:04;13.60;54.30
11239;DHT22;5677;48.488;13.436;2023-03-12T01:06:31;13.60;54.40
11239;DHT22;5677;48.488;13.436;2023-03-12T01:08:57;13.60;54.40
11239;DHT22;5677;48.488;13.436;2023-03-12T01:11:26;13.60;54.40
11239;DHT22;5677;48.488;13.436;2023-03-12T01:13:53;13.60;54.40
11239;DHT22;5677;48.488;13.436;2023-03-12T01:16:19;13.60;54.40
11239;DHT22;5677;48.488;13.436;2023-03-12T01:18:46;13.60;54.00
11239;DHT22;5677;48.488;13.436;2023-03-12T01:21:14;13.60;54.00
11239;DHT22;5677;48.488;13.436;2023-03-12T01:23:41;13.60;54.00
11239;DHT22;5677;48.488;13.436;2023-03-12T01:26:08;13.60;53.90
11239;DHT22;5677;48.488;13.436;2023-03-12T01:28:34;13.60;54.20
11239;DHT22;5677;48.488;13.436;2023-03-12T01:31:06;13.50;53.90
11239;DHT22;5677;48.488;13.436;2023-03-12T01:33:32;13.50;54.00
11239;DHT22;5677;48.488;13.436;2023-03-12T01:35:59;13.50;53.80
11239;DHT22;5677;48.488;13.436;2023-03-12T01:38:27;13.50;53.70
11239;DHT22;5677;48.488;13.436;2023-03-12T01:40:54;13.50;53.80
11239;DHT22;5677;48.488;13.436;2023-03-12T01:43:27;13.50;53.80
11239;DHT22;5677;48.488;13.436;2023-03-12T01:46:22;13.50;53.80
11239;DHT22;5677;48.488;13.436;2023-03-12T01:48:53;13.50;53.90
11239;DHT22;5677;48.488;13.436;2023-03-12T01:51:22;13.50;54.60
11239;DHT22;5677;48.488;13.436;2023-03-12T01:53:54;13.50;53.80
11239;DHT22;5677;48.488;13.436;2023-03-12T01:56:25;13.50;53.90
11239;DHT22;5677;48.488;13.436;2023-03-12T01:58:55;13.50;53.60
11239;DHT22;5677;48.488;13.436;2023-03-12T02:01:24;13.50;53.60
11239;DHT22;5677;48.488;13.436;2023-03-12T02:03:53;13.50;53.70
11239;DHT22;5677;48.488;13.436;2023-03-12T02:06:25;13.50;53.80
11239;DHT22;5677;48.488;13.436;2023-03-12T02:08:56;13.50;53.90
11239;DHT22;5677;48.488;13.436;2023-03-12T02:11:24;13.50;54.00
11239;DHT22;5677;48.488;13.436;2023-03-12T02:13:51;13.50;53.80
11239;DHT22;5677;48.488;13.436;2023-03-12T02:16:18;13.50;53.80
11239;DHT22;5677;48.488;13.436;2023-03-12T02:18:47;13.50;53.90
11239;DHT22;5677;48.488;13.436;2023-03-12T02:21:18;13.50;54.00
11239;DHT22;5677;48.488;13.436;2023-03-12T02:23:52;13.50;53.80
11239;DHT22;5677;48.488;13.436;2023-03-12T02:26:22;13.50;53.90
11239;DHT22;5677;48.488;13.436;2023-03-12T02:28:50;13.50;54.00
11239;DHT22;5677;48.488;13.436;2023-03-12T02:31:21;13.50;53.80
11239;DHT22;5677;48.488;13.436;2023-03-12T02:33:49;13.60;53.70
11239;DHT22;5677;48.488;13.436;2023-03-12T02:36:17;13.50;53.80
11239;DHT22;5677;48.488;13.436;2023-03-12T02:38:45;13.50;53.80
11239;DHT22;5677;48.488;13.436;2023-03-12T02:41:15;13.50;54.00
11239;DHT22;5677;48.488;13.436;2023-03-12T02:43:46;13.50;53.70
11239;DHT22;5677;48.488;13.436;2023-03-12T02:46:14;13.50;53.90
11239;DHT22;5677;48.488;13.436;2023-03-12T02:48:42;13.50;53.90
11239;DHT22;5677;48.488;13.436;2023-03-12T02:51:08;13.50;53.90
11239;DHT22;5677;48.488;13.436;2023-03-12T02:53:35;13.50;53.90
11239;DHT22;5677;48.488;13.436;2023-03-12T02:56:02;13.50;53.90
11239;DHT22;5677;48.488;13.436;2023-03-12T02:58:29;13.50;53.60
11239;DHT22;5677;48.488;13.436;2023-03-12T03:00:58;13.50;53.80
11239;DHT22;5677;48.488;13.436;2023-03-12T03:03:24;13.50;53.90
11239;DHT22;5677;48.488;13.436;2023-03-12T03:05:51;13.50;54.00
11239;DHT22;5677;48.488;13.436;2023-03-12T03:08:18;13.50;54.00
11239;DHT22;5677;48.488;13.436;2023-03-12T03:10:45;13.50;54.00
11239;DHT22;5677;48.488;13.436;2023-03-12T03:13:11;13.50;54.00
11239;DHT22;5677;48.488;13.436;2023-03-12T03:15:38;13.40;53.90
11239;DHT22;5677;48.488;13.436;2023-03-12T03:18:06;13.50;54.10
11239;DHT22;5677;48.488;13.436;2023-03-12T03:20:33;13.50;54.00
11239;DHT22;5677;48.488;13.436;2023-03-12T03:23:00;13.40;53.80
11239;DHT22;5677;48.488;13.436;2023-03-12T03:25:27;13.40;53.60
11239;DHT22;5677;48.488;13.436;2023-03-12T03:27:53;13.50;53.80
11239;DHT22;5677;48.488;13.436;2023-03-12T03:30:21;13.50;53.70
11239;DHT22;5677;48.488;13.436;2023-03-12T03:32:48;13.40;53.80
11239;DHT22;5677;48.488;13.436;2023-03-12T03:35:17;13.50;53.90
11239;DHT22;5677;48.488;13.436;2023-03-12T03:37:44;13.40;53.80
11239;DHT22;5677;48.488;13.436;2023-03-12T03:40:11;13.50;54.00
11239;DHT22;5677;48.488;13.436;2023-03-12T03:42:38;13.40;53.80
11239;DHT22;5677;48.488;13.436;2023-03-12T03:45:07;13.40;53.90
11239;DHT22;5677;48.488;13.436;2023-03-12T03:47:33;13.40;53.90
11239;DHT22;5677;48.488;13.436;2023-03-12T03:50:01;13.40;53.90
11239;DHT22;5677;48.488;13.436;2023-03-12T03:52:29;13.40;53.90
11239;DHT22;5677;48.488;13.436;2023-03-12T03:54:56;13.40;53.80
11239;DHT22;5677;48.488;13.436;2023-03-12T03:57:24;13.40;54.00
11239;DHT22;5677;48.488;13.436;2023-03-12T03:59:50;13.40;54.00
11239;DHT22;5677;48.488;13.436;2023-03-12T04:02:17;13.40;54.00
11239;DHT22;5677;48.488;13.436;2023-03-12T04:04:44;13.40;54.00
11239;DHT22;5677;48.488;13.436;2023-03-12T04:07:11;13.40;54.00
11239;DHT22;5677;48.488;13.436;2023-03-12T04:09:39;13.40;53.90
11239;DHT22;5677;48.488;13.436;2023-03-12T04:12:06;13.40;53.90
11239;DHT22;5677;48.488;13.436;2023-03-12T04:14:33;13.40;53.80
11239;DHT22;5677;48.488;13.436;2023-03-12T04:17:00;13.40;53.80
11239;DHT22;5677;48.488;13.436;2023-03-12T04:19:26;13.40;53.90
11239;DHT22;5677;48.488;13.436;2023-03-12T04:21:53;13.40;53.90
11239;DHT22;5677;48.488;13.436;2023-03-12T04:24:20;13.40;54.10
11239;DHT22;5677;48.488;13.436;2023-03-12T04:26:48;13.40;54.10
11239;DHT22;5677;48.488;13.436;2023-03-12T04:29:16;13.40;54.10
11239;DHT22;5677;48.488;13.436;2023-03-12T04:31:43;13.40;54.10
11239;DHT22;5677;48.488;13.436;2023-03-12T04:34:10;13.40;54.20
11239;DHT22;5677;48.488;13.436;2023-03-12T04:36:36;13.40;54.40
11239;DHT22;5677;48.488;13.436;2023-03-12T04:39:03;13.40;54.20
11239;DHT22;5677;48.488;13.436;2023-03-12T04:41:32;13.40;54.30
11239;DHT22;5677;48.488;13.436;2023-03-12T04:44:00;13.40;54.30
11239;DHT22;5677;48.488;13.436;2023-03-12T04:46:27;13.40;54.10
11239;DHT22;5677;48.488;13.436;2023-03-12T04:48:54;13.40;53.90
11239;DHT22;5677;48.488;13.436;2023-03-12T04:51:22;13.40;53.90
11239;DHT22;5677;48.488;13.436;2023-03-12T04:53:49;13.40;54.00
11239;DHT22;5677;48.488;13.436;2023-03-12T04:56:16;13.40;53.90
11239;DHT22;5677;48.488;13.436;2023-03-12T04:58:43;13.40;53.80
11239;DHT22;5677;48.488;13.436;2023-03-12T05:01:21;13.40;54.10
11239;DHT22;5677;48.488;13.436;2023-03-12T05:03:48;13.40;54.00
11239;DHT22;5677;48.488;13.436;2023-03-12T05:06:15;13.40;54.10
11239;DHT22;5677;48.488;13.436;2023-03-12T05:08:41;13.40;54.00
11239;DHT22;5677;48.488;13.436;2023-03-12T05:11:08;13.30;53.80
11239;DHT22;5677;48.488;13.436;2023-03-12T05:13:35;13.40;53.90
11239;DHT22;5677;48.488;13.436;2023-03-12T05:16:02;13.40;54.00
11239;DHT22;5677;48.488;13.436;2023-03-12T05:18:30;13.40;53.80
11239;DHT22;5677;48.488;13.436;2023-03-12T05:20:59;13.40;53.80
11239;DHT22;5677;48.488;13.436;2023-03-12T05:23:26;13.30;53.60
11239;DHT22;5677;48.488;13.436;2023-03-12T05:25:53;13.30;53.60
11239;DHT22;5677;48.488;13.436;2023-03-12T05:28:20;13.30;53.70
11239;DHT22;5677;48.488;13.436;2023-03-12T05:30:52;13.30;53.50
11239;DHT22;5677;48.488;13.436;2023-03-12T05:33:19;13.30;53.50
11239;DHT22;5677;48.488;13.436;2023-03-12T05:35:47;13.30;53.60
11239;DHT22;5677;48.488;13.436;2023-03-12T05:38:14;13.30;53.60
11239;DHT22;5677;48.488;13.436;2023-03-12T05:40:40;13.30;53.40
11239;DHT22;5677;48.488;13.436;2023-03-12T05:43:07;13.30;53.60
11239;DHT22;5677;48.488;13.436;2023-03-12T05:45:34;13.30;53.40
11239;DHT22;5677;48.488;13.436;2023-03-12T05:48:01;13.30;53.10
11239;DHT22;5677;48.488;13.436;2023-03-12T05:50:28;13.30;53.90
11239;DHT22;5677;48.488;13.436;2023-03-12T05:52:56;13.30;53.10
11239;DHT22;5677;48.488;13.436;2023-03-12T05:55:22;13.30;53.20
11239;DHT22;5677;48.488;13.436;2023-03-12T05:57:49;13.30;53.00
11239;DHT22;5677;48.488;13.436;2023-03-12T06:00:17;13.30;52.60
11239;DHT22;5677;48.488;13.436;2023-03-12T06:02:44;13.30;52.60
11239;DHT22;5677;48.488;13.436;2023-03-12T06:05:12;13.30;52.60
11239;DHT22;5677;48.488;13.436;2023-03-12T06:07:39;13.30;52.50
11239;DHT22;5677;48.488;13.436;2023-03-12T06:10:08;13.30;52.50
11239;DHT22;5677;48.488;13.436;2023-03-12T06:12:35;13.30;52.60
11239;DHT22;5677;48.488;13.436;2023-03-12T06:15:02;13.30;52.50
11239;DHT22;5677;48.488;13.436;2023-03-12T06:17:30;13.30;52.60
11239;DHT22;5677;48.488;13.436;2023-03-12T06:19:57;13.30;52.60
11239;DHT22;5677;48.488;13.436;2023-03-12T06:22:25;13.30;52.60
11239;DHT22;5677;48.488;13.436;2023-03-12T06:24:51;13.30;52.50
11239;DHT22;5677;48.488;13.436;2023-03-12T06:27:19;13.30;52.50
11239;DHT22;5677;48.488;13.436;2023-03-12T06:29:46;13.30;52.50
11239;DHT22;5677;48.488;13.436;2023-03-12T06:32:13;13.30;52.40
11239;DHT22;5677;48.488;13.436;2023-03-12T06:34:40;13.30;52.60
11239;DHT22;5677;48.488;13.436;2023-03-12T06:37:07;13.30;52.60
11239;DHT22;5677;48.488;13.436;2023-03-12T06:39:34;13.30;52.60
11239;DHT22;5677;48.488;13.436;2023-03-12T06:42:01;13.30;52.60
11239;DHT22;5677;48.488;13.436;2023-03-12T06:44:29;13.30;52.80
11239;DHT22;5677;48.488;13.436;2023-03-12T06:46:56;13.30;53.00
11239;DHT22;5677;48.488;13.436;2023-03-12T06:49:24;13.30;50.40
11239;DHT22;5677;48.488;13.436;2023-03-12T06:51:52;13.30;51.80
11239;DHT22;5677;48.488;13.436;2023-03-12T06:54:21;13.30;52.50
11239;DHT22;5677;48.488;13.436;2023-03-12T06:56:48;13.30;52.40
11239;DHT22;5677;48.488;13.436;2023-03-12T06:59:15;13.30;52.50
11239;DHT22;5677;48.488;13.436;2023-03-12T07:01:44;13.40;52.60
11239;DHT22;5677;48.488;13.436;2023-03-12T07:04:10;13.40;52.60
11239;DHT22;5677;48.488;13.436;2023-03-12T07:06:37;13.50;52.60
11239;DHT22;5677;48.488;13.436;2023-03-12T07:09:04;13.60;52.10
11239;DHT22;5677;48.488;13.436;2023-03-12T07:11:31;13.70;52.10
11239;DHT22;5677;48.488;13.436;2023-03-12T07:13:58;13.70;51.90
11239;DHT22;5677;48.488;13.436;2023-03-12T07:16:25;13.80;51.90
11239;DHT22;5677;48.488;13.436;2023-03-12T07:18:53;13.80;52.00
11239;DHT22;5677;48.488;13.436;2023-03-12T07:21:19;13.80;52.20
11239;DHT22;5677;48.488;13.436;2023-03-12T07:23:48;13.80;52.00
11239;DHT22;5677;48.488;13.436;2023-03-12T07:26:15;13.80;51.90
11239;DHT22;5677;48.488;13.436;2023-03-12T07:28:41;13.80;52.00
11239;DHT22;5677;48.488;13.436;2023-03-12T07:31:08;13.80;51.90
11239;DHT22;5677;48.488;13.436;2023-03-12T07:33:36;13.80;50.80
11239;DHT22;5677;48.488;13.436;2023-03-12T07:36:05;13.80;50.00
11239;DHT22;5677;48.488;13.436;2023-03-12T07:38:32;13.80;51.00
11239;DHT22;5677;48.488;13.436;2023-03-12T07:40:58;13.80;51.10
11239;DHT22;5677;48.488;13.436;2023-03-12T07:43:25;13.80;51.30
11239;DHT22;5677;48.488;13.436;2023-03-12T07:45:52;13.90;51.50
11239;DHT22;5677;48.488;13.436;2023-03-12T07:48:19;13.90;51.60
11239;DHT22;5677;48.488;13.436;2023-03-12T07:50:46;14.00;51.50
11239;DHT22;5677;48.488;13.436;2023-03-12T07:53:15;14.00;51.70
11239;DHT22;5677;48.488;13.436;2023-03-12T07:55:43;14.00;46.60
11239;DHT22;5677;48.488;13.436;2023-03-12T07:58:10;14.00;48.80
11239;DHT22;5677;48.488;13.436;2023-03-12T08:00:37;14.10;50.00
11239;DHT22;5677;48.488;13.436;2023-03-12T08:03:04;14.10;50.40
11239;DHT22;5677;48.488;13.436;2023-03-12T08:05:31;14.20;50.50
11239;DHT22;5677;48.488;13.436;2023-03-12T08:07:58;14.30;50.60
11239;DHT22;5677;48.488;13.436;2023-03-12T08:10:26;14.40;50.40
11239;DHT22;5677;48.488;13.436;2023-03-12T08:12:52;14.40;48.80
11239;DHT22;5677;48.488;13.436;2023-03-12T08:15:19;14.40;50.20
11239;DHT22;5677;48.488;13.436;2023-03-12T08:17:46;14.50;50.40
11239;DHT22;5677;48.488;13.436;2023-03-12T08:20:13;14.50;50.30
11239;DHT22;5677;48.488;13.436;2023-03-12T08:22:40;14.50;50.20
11239;DHT22;5677;48.488;13.436;2023-03-12T08:25:08;14.40;50.20
11239;DHT22;5677;48.488;13.436;2023-03-12T08:27:36;14.40;50.20
11239;DHT22;5677;48.488;13.436;2023-03-12T08:30:03;14.50;50.50
11239;DHT22;5677;48.488;13.436;2023-03-12T08:32:31;14.60;50.40
11239;DHT22;5677;48.488;13.436;2023-03-12T08:34:57;14.60;50.10
11239;DHT22;5677;48.488;13.436;2023-03-12T08:37:24;14.70;48.70
11239;DHT22;5677;48.488;13.436;2023-03-12T08:39:51;14.70;48.40
11239;DHT22;5677;48.488;13.436;2023-03-12T08:42:18;14.80;48.20
11239;DHT22;5677;48.488;13.436;2023-03-12T08:44:46;14.80;48.10
11239;DHT22;5677;48.488;13.436;2023-03-12T08:47:13;14.80;48.00
11239;DHT22;5677;48.488;13.436;2023-03-12T08:49:39;14.90;48.10
11239;DHT22;5677;48.488;13.436;2023-03-12T08:52:06;14.90;48.30
11239;DHT22;5677;48.488;13.436;2023-03-12T08:54:33;14.90;48.10
11239;DHT22;5677;48.488;13.436;2023-03-12T08:57:00;14.90;48.10
11239;DHT22;5677;48.488;13.436;2023-03-12T08:59:26;14.90;47.90
11239;DHT22;5677;48.488;13.436;2023-03-12T09:01:54;14.90;48.10
11239;DHT22;5677;48.488;13.436;2023-03-12T09:04:21;14.90;48.10
11239;DHT22;5677;48.488;13.436;2023-03-12T09:06:48;14.90;47.90
11239;DHT22;5677;48.488;13.436;2023-03-12T09:09:15;14.90;47.70
11239;DHT22;5677;48.488;13.436;2023-03-12T09:11:41;14.80;49.00
11239;DHT22;5677;48.488;13.436;2023-03-12T09:14:08;14.80;51.80
11239;DHT22;5677;48.488;13.436;2023-03-12T09:16:35;14.80;52.70
11239;DHT22;5677;48.488;13.436;2023-03-12T09:19:03;14.80;52.50
11239;DHT22;5677;48.488;13.436;2023-03-12T09:21:30;14.80;53.00
11239;DHT22;5677;48.488;13.436;2023-03-12T09:23:57;14.80;52.80
11239;DHT22;5677;48.488;13.436;2023-03-12T09:26:23;14.80;52.70
11239;DHT22;5677;48.488;13.436;2023-03-12T09:28:50;14.70;52.70
11239;DHT22;5677;48.488;13.436;2023-03-12T09:31:17;14.70;52.70
11239;DHT22;5677;48.488;13.436;2023-03-12T09:33:44;14.60;47.00
11239;DHT22;5677;48.488;13.436;2023-03-12T09:36:12;14.60;47.80
11239;DHT22;5677;48.488;13.436;2023-03-12T09:38:39;14.50;47.80
11239;DHT22;5677;48.488;13.436;2023-03-12T09:41:10;14.50;49.20
11239;DHT22;5677;48.488;13.436;2023-03-12T09:43:43;14.50;50.50
11239;DHT22;5677;48.488;13.436;2023-03-12T09:46:14;14.50;50.80
11239;DHT22;5677;48.488;13.436;2023-03-12T09:48:44;14.40;50.30
11239;DHT22;5677;48.488;13.436;2023-03-12T09:51:19;14.50;50.30
11239;DHT22;5677;48.488;13.436;2023-03-12T09:53:49;14.50;50.60
11239;DHT22;5677;48.488;13.436;2023-03-12T09:56:19;14.50;50.50
11239;DHT22;5677;48.488;13.436;2023-03-12T09:58:47;14.40;50.30
11239;DHT22;5677;48.488;13.436;2023-03-12T10:01:33;14.40;50.30
11239;DHT22;5677;48.488;13.436;2023-03-12T10:04:26;14.40;50.20
11239;DHT22;5677;48.488;13.436;2023-03-12T10:07:01;14.40;50.30
11239;DHT22;5677;48.488;13.436;2023-03-12T10:09:49;14.30;50.20
11239;DHT22;5677;48.488;13.436;2023-03-12T10:12:24;14.30;50.30
11239;DHT22;5677;48.488;13.436;2023-03-12T10:15:06;14.30;50.30
11239;DHT22;5677;48.488;13.436;2023-03-12T10:17:49;14.30;50.40
11239;DHT22;5677;48.488;13.436;2023-03-12T10:20:34;14.30;50.30
11239;DHT22;5677;48.488;13.436;2023-03-12T10:23:11;14.30;49.60
11239;DHT22;5677;48.488;13.436;2023-03-12T10:25:41;14.30;50.00
11239;DHT22;5677;48.488;13.436;2023-03-12T10:28:14;14.30;50.30
11239;DHT22;5677;48.488;13.436;2023-03-12T10:30:47;14.30;50.20
11239;DHT22;5677;48.488;13.436;2023-03-12T10:33:18;14.30;50.10
11239;DHT22;5677;48.488;13.436;2023-03-12T10:35:45;14.30;50.00
11239;DHT22;5677;48.488;13.436;2023-03-12T10:38:16;14.30;50.00
11239;DHT22;5677;48.488;13.436;2023-03-12T10:40:43;14.30;50.10
11239;DHT22;5677;48.488;13.436;2023-03-12T10:43:10;14.30;50.00
11239;DHT22;5677;48.488;13.436;2023-03-12T10:45:39;14.30;49.90
11239;DHT22;5677;48.488;13.436;2023-03-12T10:48:10;14.30;50.00
11239;DHT22;5677;48.488;13.436;2023-03-12T10:50:38;14.30;49.90
11239;DHT22;5677;48.488;13.436;2023-03-12T10:53:19;14.30;49.90
11239;DHT22;5677;48.488;13.436;2023-03-12T10:55:58;14.40;50.00
11239;DHT22;5677;48.488;13.436;2023-03-12T10:58:29;14.40;50.00
11239;DHT22;5677;48.488;13.436;2023-03-12T11:00:58;14.40;50.30
11239;DHT22;5677;48.488;13.436;2023-03-12T11:03:26;14.40;50.90
11239;DHT22;5677;48.488;13.436;2023-03-12T11:05:55;14.50;51.50
11239;DHT22;5677;48.488;13.436;2023-03-12T11:08:25;14.50;51.70
11239;DHT22;5677;48.488;13.436;2023-03-12T11:10:53;14.50;52.60
11239;DHT22;5677;48.488;13.436;2023-03-12T11:13:23;14.50;52.00
11239;DHT22;5677;48.488;13.436;2023-03-12T11:15:51;14.50;52.20
11239;DHT22;5677;48.488;13.436;2023-03-12T11:18:22;14.50;52.30
11239;DHT22;5677;48.488;13.436;2023-03-12T11:20:51;14.50;52.20
11239;DHT22;5677;48.488;13.436;2023-03-12T11:23:20;14.50;52.10
11239;DHT22;5677;48.488;13.436;2023-03-12T11:25:53;14.50;52.00
11239;DHT22;5677;48.488;13.436;2023-03-12T11:28:23;14.40;51.70
11239;DHT22;5677;48.488;13.436;2023-03-12T11:30:52;14.50;51.90
11239;DHT22;5677;48.488;13.436;2023-03-12T11:33:19;14.50;52.00
11239;DHT22;5677;48.488;13.436;2023-03-12T11:35:55;14.50;51.90
11239;DHT22;5677;48.488;13.436;2023-03-12T11:38:30;14.40;51.80
11239;DHT22;5677;48.488;13.436;2023-03-12T11:41:06;14.40;51.90
11239;DHT22;5677;48.488;13.436;2023-03-12T11:43:48;14.40;52.00
11239;DHT22;5677;48.488;13.436;2023-03-12T11:46:26;14.40;52.00
11239;DHT22;5677;48.488;13.436;2023-03-12T11:49:04;14.40;51.90
11239;DHT22;5677;48.488;13.436;2023-03-12T11:51:40;14.30;52.00
11239;DHT22;5677;48.488;13.436;2023-03-12T11:54:24;14.30;52.00
11239;DHT22;5677;48.488;13.436;2023-03-12T11:57:00;14.30;51.90
11239;DHT22;5677;48.488;13.436;2023-03-12T11:59:41;14.30;52.00
11239;DHT22;5677;48.488;13.436;2023-03-12T12:02:20;14.30;52.70
11239;DHT22;5677;48.488;13.436;2023-03-12T12:05:18;14.30;48.50
11239;DHT22;5677;48.488;13.436;2023-03-12T12:07:55;14.20;50.70
11239;DHT22;5677;48.488;13.436;2023-03-12T12:10:29;14.20;51.60
11239;DHT22;5677;48.488;13.436;2023-03-12T12:13:05;14.20;51.80
11239;DHT22;5677;48.488;13.436;2023-03-12T12:15:41;14.20;51.90
11239;DHT22;5677;48.488;13.436;2023-03-12T12:18:30;14.20;51.50
11239;DHT22;5677;48.488;13.436;2023-03-12T12:21:05;14.20;52.00
11239;DHT22;5677;48.488;13.436;2023-03-12T12:23:44;14.20;52.00
11239;DHT22;5677;48.488;13.436;2023-03-12T12:26:15;14.20;52.00
11239;DHT22;5677;48.488;13.436;2023-03-12T12:28:57;14.20;52.10
11239;DHT22;5677;48.488;13.436;2023-03-12T12:31:36;14.20;52.20
11239;DHT22;5677;48.488;13.436;2023-03-12T12:40:02;14.10;51.90
11239;DHT22;5677;48.488;13.436;2023-03-12T12:42:46;14.10;51.90
11239;DHT22;5677;48.488;13.436;2023-03-12T12:45:15;14.10;52.00
11239;DHT22;5677;48.488;13.436;2023-03-12T12:47:48;14.10;52.10
11239;DHT22;5677;48.488;13.436;2023-03-12T12:50:18;14.10;52.00
11239;DHT22;5677;48.488;13.436;2023-03-12T12:52:49;14.10;51.90
11239;DHT22;5677;48.488;13.436;2023-03-12T12:55:21;14.10;51.90
11239;DHT22;5677;48.488;13.436;2023-03-12T12:57:53;14.10;51.90
11239;DHT22;5677;48.488;13.436;2023-03-12T13:00:39;14.10;51.30
11239;DHT22;5677;48.488;13.436;2023-03-12T13:03:12;14.10;51.80
11239;DHT22;5677;48.488;13.436;2023-03-12T13:05:52;14.10;52.70
11239;DHT22;5677;48.488;13.436;2023-03-12T13:08:58;14.00;51.90
11239;DHT22;5677;48.488;13.436;2023-03-12T13:11:29;14.00;51.90
11239;DHT22;5677;48.488;13.436;2023-03-12T13:14:14;14.00;51.90
11239;DHT22;5677;48.488;13.436;2023-03-12T13:16:43;14.00;51.90
11239;DHT22;5677;48.488;13.436;2023-03-12T13:19:25;14.00;51.90
11239;DHT22;5677;48.488;13.436;2023-03-12T13:22:03;14.00;51.80
11239;DHT22;5677;48.488;13.436;2023-03-12T13:24:40;14.00;52.00
11239;DHT22;5677;48.488;13.436;2023-03-12T13:27:14;14.00;51.90
11239;DHT22;5677;48.488;13.436;2023-03-12T13:29:42;14.10;52.00
11239;DHT22;5677;48.488;13.436;2023-03-12T13:32:50;14.00;51.90
11239;DHT22;5677;48.488;13.436;2023-03-12T13:35:31;14.00;51.90
11239;DHT22;5677;48.488;13.436;2023-03-12T13:38:02;14.00;51.90
11239;DHT22;5677;48.488;13.436;2023-03-12T13:41:00;14.00;51.60
11239;DHT22;5677;48.488;13.436;2023-03-12T13:43:48;14.10;52.10
11239;DHT22;5677;48.488;13.436;2023-03-12T13:46:45;14.00;52.10
11239;DHT22;5677;48.488;13.436;2023-03-12T13:49:17;14.00;52.00
11239;DHT22;5677;48.488;13.436;2023-03-12T13:51:53;14.00;52.00
11239;DHT22;5677;48.488;13.436;2023-03-12T13:54:25;14.00;52.00
11239;DHT22;5677;48.488;13.436;2023-03-12T13:57:01;14.00;52.10
11239;DHT22;5677;48.488;13.436;2023-03-12T13:59:29;14.00;52.10
11239;DHT22;5677;48.488;13.436;2023-03-12T14:02:00;14.00;52.00
11239;DHT22;5677;48.488;13.436;2023-03-12T14:04:34;14.00;51.90
11239;DHT22;5677;48.488;13.436;2023-03-12T14:07:24;14.00;52.00
11239;DHT22;5677;48.488;13.436;2023-03-12T14:10:00;14.00;51.90
11239;DHT22;5677;48.488;13.436;2023-03-12T14:12:33;14.00;51.90
11239;DHT22;5677;48.488;13.436;2023-03-12T14:15:12;14.00;52.00
11239;DHT22;5677;48.488;13.436;2023-03-12T14:17:43;14.00;52.00
11239;DHT22;5677;48.488;13.436;2023-03-12T14:20:13;14.00;52.00
11239;DHT22;5677;48.488;13.436;2023-03-12T14:22:44;14.00;51.90
11239;DHT22;5677;48.488;13.436;2023-03-12T14:25:15;14.00;51.90
11239;DHT22;5677;48.488;13.436;2023-03-12T14:27:44;14.00;51.80
11239;DHT22;5677;48.488;13.436;2023-03-12T14:30:18;13.90;51.90
11239;DHT22;5677;48.488;13.436;2023-03-12T14:32:49;14.00;51.90
11239;DHT22;5677;48.488;13.436;2023-03-12T14:35:20;14.00;52.00
11239;DHT22;5677;48.488;13.436;2023-03-12T14:37:55;13.90;52.20
11239;DHT22;5677;48.488;13.436;2023-03-12T14:40:34;14.00;52.40
11239;DHT22;5677;48.488;13.436;2023-03-12T14:43:01;14.00;52.90
11239;DHT22;5677;48.488;13.436;2023-03-12T14:45:28;14.00;53.00
11239;DHT22;5677;48.488;13.436;2023-03-12T14:47:56;14.00;53.10
11239;DHT22;5677;48.488;13.436;2023-03-12T14:50:25;14.00;53.20
11239;DHT22;5677;48.488;13.436;2023-03-12T14:52:54;14.00;53.10
11239;DHT22;5677;48.488;13.436;2023-03-12T14:55:23;14.00;53.00
11239;DHT22;5677;48.488;13.436;2023-03-12T14:58:02;14.00;52.90
11239;DHT22;5677;48.488;13.436;2023-03-12T15:00:29;14.00;53.20
11239;DHT22;5677;48.488;13.436;2023-03-12T15:02:58;14.00;53.50
11239;DHT22;5677;48.488;13.436;2023-03-12T15:05:25;14.00;53.70
11239;DHT22;5677;48.488;13.436;2023-03-12T15:07:57;14.10;53.70
11239;DHT22;5677;48.488;13.436;2023-03-12T15:10:27;14.00;53.40
11239;DHT22;5677;48.488;13.436;2023-03-12T15:12:57;14.00;53.20
11239;DHT22;5677;48.488;13.436;2023-03-12T15:15:30;14.00;53.20
11239;DHT22;5677;48.488;13.436;2023-03-12T15:18:01;14.00;53.20
11239;DHT22;5677;48.488;13.436;2023-03-12T15:20:29;14.00;53.00
11239;DHT22;5677;48.488;13.436;2023-03-12T15:22:57;14.00;52.90
11239;DHT22;5677;48.488;13.436;2023-03-12T15:25:26;14.00;52.90
11239;DHT22;5677;48.488;13.436;2023-03-12T15:28:02;14.00;52.90
11239;DHT22;5677;48.488;13.436;2023-03-12T15:30:29;14.00;52.80
11239;DHT22;5677;48.488;13.436;2023-03-12T15:33:04;14.00;52.80
11239;DHT22;5677;48.488;13.436;2023-03-12T15:35:31;14.00;52.70
11239;DHT22;5677;48.488;13.436;2023-03-12T15:38:00;14.00;52.90
11239;DHT22;5677;48.488;13.436;2023-03-12T15:40:28;14.00;53.20
11239;DHT22;5677;48.488;13.436;2023-03-12T15:42:56;14.00;53.20
11239;DHT22;5677;48.488;13.436;2023-03-12T15:45:33;14.00;53.30
11239;DHT22;5677;48.488;13.436;2023-03-12T15:48:02;14.00;53.40
11239;DHT22;5677;48.488;13.436;2023-03-12T15:50:32;14.00;53.40
11239;DHT22;5677;48.488;13.436;2023-03-12T15:53:03;14.00;53.50